Time;durP1;ratioP1;P1;durP2;ratioP2;P2;SDS_P1;SDS_P2;PMS_P1;PMS_P2;Temp;Humidity;BMP_temperature;BMP_pressure;BME280_temperature;BME280_humidity;BME280_pressure;Samples;Min_cycle;Max_cycle;Signal;HPM_P1;HPM_P2
2023/09/26 00:01:55;;;;;;;1.88;1.50;;;19.40;85.30;;;;;;5011732;28;20129;-27
2023/09/26 00:04:22;;;;;;;2.33;1.77;;;;;;;;;;5012023;28;20129;-28
2023/09/26 00:06:49;;;;;;;3.30;1.77;;;19.90;76.20;;;;;;5011829;28;20050;-26
2023/09/26 00:09:16;;;;;;;2.10;1.50;;;;;;;;;;5011610;28;20145;-28
2023/09/26 00:11:44;;;;;;;2.45;1.70;;;20.10;85.80;;;;;;5011884;28;20065;-27
2023/09/26 00:14:11;;;;;;;4.00;1.80;;;19.20;85.30;;;;;;5024213;28;20128;-27
2023/09/26 00:16:38;;;;;;;2.13;1.60;;;;;;;;;;5013773;28;20046;-27
2023/09/26 00:19:05;;;;;;;1.85;1.60;;;18.70;83.40;;;;;;5011972;28;20132;-27
2023/09/26 00:21:33;;;;;;;1.95;1.70;;;18.90;84.70;;;;;;5011651;28;20396;-27
2023/09/26 00:23:59;;;;;;;2.50;1.83;;;19.80;85.70;;;;;;5011785;28;20100;-27
2023/09/26 00:26:26;;;;;;;1.70;1.50;;;19.10;85.20;;;;;;5011469;28;20057;-27
2023/09/26 00:28:54;;;;;;;2.55;1.70;;;19.50;77.70;;;;;;5011468;28;20177;-27
2023/09/26 00:31:21;;;;;;;1.85;1.60;;;;;;;;;;5014947;28;20129;-28
2023/09/26 00:33:48;;;;;;;2.33;1.75;;;20.30;85.40;;;;;;5015735;28;20077;-27
2023/09/26 00:36:15;;;;;;;2.03;1.80;;;;;;;;;;5014817;28;20499;-27
2023/09/26 00:38:42;;;;;;;2.55;1.73;;;20.60;85.70;;;;;;5015407;28;20076;-27
2023/09/26 00:41:10;;;;;;;1.38;1.27;;;18.50;79.30;;;;;;5015444;28;20610;-27
2023/09/26 00:43:36;;;;;;;2.22;1.67;;;19.80;85.70;;;;;;5015336;28;20133;-27
2023/09/26 00:46:05;;;;;;;2.25;1.60;;;19.70;68.90;;;;;;5014972;28;20129;-28
2023/09/26 00:48:32;;;;;;;3.08;1.67;;;19.10;81.70;;;;;;5014955;28;20152;-27
2023/09/26 00:50:59;;;;;;;1.98;1.65;;;;;;;;;;5015157;28;20056;-26
2023/09/26 00:53:26;;;;;;;1.90;1.50;;;19.20;80.60;;;;;;5015173;28;20125;-27
2023/09/26 00:55:53;;;;;;;2.22;1.80;;;19.00;85.50;;;;;;5014935;28;20146;-27
2023/09/26 00:58:20;;;;;;;2.78;1.63;;;;;;;;;;5015297;28;20062;-27
2023/09/26 01:00:47;;;;;;;2.08;1.70;;;18.30;85.10;;;;;;5014997;28;20133;-27
2023/09/26 01:03:16;;;;;;;2.08;1.67;;;19.40;78.60;;;;;;5014796;28;20061;-28
2023/09/26 01:05:42;;;;;;;3.95;2.00;;;20.00;85.50;;;;;;5014512;28;20045;-28
2023/09/26 01:08:09;;;;;;;2.00;1.70;;;18.80;85.10;;;;;;5014862;28;20137;-27
2023/09/26 01:10:36;;;;;;;2.05;1.50;;;19.50;68.80;;;;;;5015056;28;20062;-28
2023/09/26 01:13:04;;;;;;;2.67;1.80;;;19.60;85.80;;;;;;5018022;28;20120;-27
2023/09/26 01:15:31;;;;;;;2.10;1.70;;;19.40;68.70;;;;;;5034427;28;20518;-28
2023/09/26 01:17:58;;;;;;;2.20;1.63;;;;;;;;;;5020904;28;20053;-28
2023/09/26 01:20:28;;;;;;;2.80;2.00;;;19.30;85.60;;;;;;5014836;28;20133;-27
2023/09/26 01:22:55;;;;;;;2.03;1.60;;;19.30;85.30;;;;;;5014242;28;20050;-28
2023/09/26 01:25:23;;;;;;;2.60;2.00;;;20.00;85.70;;;;;;5014595;28;20054;-27
2023/09/26 01:27:50;;;;;;;2.35;1.90;;;19.40;85.30;;;;;;5014238;28;20133;-26
2023/09/26 01:30:17;;;;;;;2.78;2.03;;;;;;;;;;5014690;28;20129;-27
2023/09/26 01:32:43;;;;;;;1.90;1.70;;;19.60;85.40;;;;;;5014237;28;20134;-28
2023/09/26 01:35:10;;;;;;;2.03;1.70;;;19.00;85.10;;;;;;5014159;28;20137;-27
2023/09/26 01:37:37;;;;;;;1.98;1.50;;;19.80;80.80;;;;;;5013574;28;20125;-28
2023/09/26 01:40:10;;;;;;;3.30;1.90;;;19.60;85.70;;;;;;5014483;28;20129;-27
2023/09/26 01:42:38;;;;;;;1.98;1.67;;;19.40;68.80;;;;;;5013628;28;20054;-28
2023/09/26 01:45:06;;;;;;;2.33;1.80;;;19.50;74.10;;;;;;5013527;28;20060;-27
2023/09/26 01:47:35;;;;;;;3.03;1.70;;;19.70;69.70;;;;;;5013636;28;20129;-28
2023/09/26 01:50:02;;;;;;;3.47;2.00;;;;;;;;;;5013960;28;20499;-27
2023/09/26 01:52:32;;;;;;;2.72;1.90;;;;;;;;;;5014169;28;20104;-28
2023/09/26 01:54:59;;;;;;;2.95;1.80;;;19.10;85.20;;;;;;5013998;28;20081;-27
2023/09/26 01:57:25;;;;;;;2.47;1.90;;;20.10;72.20;;;;;;5013635;28;20134;-28
2023/09/26 01:59:53;;;;;;;1.98;1.73;;;19.40;68.70;;;;;;5013882;28;20137;-28
2023/09/26 02:02:20;;;;;;;2.70;1.80;;;20.20;72.50;;;;;;5012606;28;20133;-27
2023/09/26 02:04:47;;;;;;;2.58;1.80;;;;;;;;;;5013709;28;20137;-28
2023/09/26 02:07:14;;;;;;;3.33;1.90;;;19.40;85.50;;;;;;5013707;28;20129;-27
2023/09/26 02:09:41;;;;;;;2.00;1.60;;;20.30;85.70;;;;;;5013759;28;20146;-27
2023/09/26 02:12:08;;;;;;;2.28;1.77;;;;;;;;;;5013729;28;20129;-28
2023/09/26 02:14:35;;;;;;;2.55;1.75;;;19.30;85.50;;;;;;5013350;28;20088;-26
2023/09/26 02:17:03;;;;;;;2.55;1.75;;;19.30;85.50;;;;;;5013195;28;20211;-27
2023/09/26 02:19:30;;;;;;;3.30;2.00;;;19.10;77.40;;;;;;5013586;28;20137;-27
2023/09/26 02:21:57;;;;;;;3.00;2.00;;;19.60;85.50;;;;;;5013505;28;20686;-27
2023/09/26 02:24:23;;;;;;;2.95;1.80;;;19.50;85.50;;;;;;5013452;28;20125;-27
2023/09/26 02:26:50;;;;;;;2.20;1.70;;;19.90;81.60;;;;;;5013101;28;20569;-27
2023/09/26 02:29:17;;;;;;;2.15;1.70;;;18.60;85.40;;;;;;5013366;28;20128;-27
2023/09/26 02:31:44;;;;;;;2.10;1.80;;;;;;;;;;5012580;28;20133;-27
2023/09/26 02:34:13;;;;;;;2.40;1.90;;;19.70;71.30;;;;;;5013295;28;20570;-27
2023/09/26 02:36:39;;;;;;;2.58;2.17;;;19.50;85.40;;;;;;5012763;28;20128;-27
2023/09/26 02:39:06;;;;;;;2.20;1.77;;;19.30;85.20;;;;;;5013291;28;20152;-27
2023/09/26 02:41:33;;;;;;;3.10;1.88;;;19.30;82.30;;;;;;5012779;28;20136;-28
2023/09/26 02:43:59;;;;;;;2.65;1.80;;;19.20;72.40;;;;;;5012954;28;20125;-27
2023/09/26 02:46:26;;;;;;;2.30;1.73;;;19.20;85.70;;;;;;5012623;28;20121;-27
2023/09/26 02:48:53;;;;;;;2.88;1.70;;;;;;;;;;5013224;28;20268;-28
2023/09/26 02:51:21;;;;;;;2.67;1.90;;;18.70;85.00;;;;;;5013064;28;20125;-27
2023/09/26 02:53:48;;;;;;;2.28;1.73;;;19.00;85.20;;;;;;5013116;28;20128;-27
2023/09/26 02:56:15;;;;;;;2.08;1.65;;;;;;;;;;5012738;28;20146;-28
2023/09/26 02:58:42;;;;;;;2.47;1.80;;;;;;;;;;5012628;28;20133;-27
2023/09/26 03:01:09;;;;;;;2.65;1.90;;;;;;;;;;5013075;28;20412;-28
2023/09/26 03:03:36;;;;;;;2.22;1.90;;;19.40;85.70;;;;;;5012696;28;20144;-27
2023/09/26 03:06:03;;;;;;;2.90;2.10;;;;;;;;;;5012609;28;20136;-28
2023/09/26 03:08:31;;;;;;;2.17;1.80;;;19.40;85.40;;;;;;5012659;28;20129;-27
2023/09/26 03:10:59;;;;;;;2.00;1.80;;;20.20;85.70;;;;;;5012580;28;20075;-28
2023/09/26 03:13:27;;;;;;;2.35;1.70;;;19.00;83.80;;;;;;5012248;28;20042;-28
2023/09/26 03:15:55;;;;;;;2.42;2.00;;;19.20;68.70;;;;;;5012590;28;20129;-28
2023/09/26 03:18:22;;;;;;;3.80;1.95;;;19.30;85.30;;;;;;5012559;28;20054;-27
2023/09/26 03:20:49;;;;;;;1.90;1.58;;;18.80;79.50;;;;;;5012039;28;20495;-27
2023/09/26 03:23:16;;;;;;;2.42;1.90;;;;;;;;;;5012400;28;20136;-28
2023/09/26 03:25:44;;;;;;;2.65;1.80;;;19.10;74.40;;;;;;5012072;28;20046;-28
2023/09/26 03:28:10;;;;;;;2.58;1.85;;;18.90;85.20;;;;;;5012188;28;20136;-27
2023/09/26 03:30:40;;;;;;;1.95;1.70;;;18.90;85.40;;;;;;5012529;28;20128;-27
2023/09/26 03:33:06;;;;;;;2.70;1.90;;;19.00;82.50;;;;;;5012586;28;20124;-28
2023/09/26 03:35:33;;;;;;;2.13;1.83;;;19.20;85.50;;;;;;5012173;28;20129;-26
2023/09/26 03:38:00;;;;;;;2.22;1.73;;;18.90;85.60;;;;;;5011520;28;20041;-27
2023/09/26 03:40:26;;;;;;;2.20;1.83;;;19.90;76.60;;;;;;5011432;28;20126;-27
2023/09/26 03:42:54;;;;;;;2.55;1.80;;;19.30;85.60;;;;;;5012164;28;20491;-30
2023/09/26 03:45:22;;;;;;;2.78;2.00;;;18.90;85.30;;;;;;5011902;28;20121;-30
2023/09/26 03:47:49;;;;;;;2.05;1.85;;;;;;;;;;5011453;28;20077;-29
2023/09/26 03:50:17;;;;;;;2.60;1.83;;;;;;;;;;5009159;28;20046;-29
2023/09/26 03:52:43;;;;;;;2.65;1.67;;;18.90;77.90;;;;;;5011708;28;20152;-29
2023/09/26 03:55:10;;;;;;;3.67;1.90;;;18.90;85.70;;;;;;5011833;28;20065;-30
2023/09/26 03:57:37;;;;;;;3.05;1.90;;;19.20;74.40;;;;;;5011432;28;20129;-29
2023/09/26 04:00:12;;;;;;;2.70;2.25;;;19.30;85.50;;;;;;5011646;28;20129;-30
2023/09/26 04:02:39;;;;;;;3.33;1.88;;;19.10;77.70;;;;;;5011704;28;20115;-29
2023/09/26 04:05:06;;;;;;;2.05;1.85;;;18.10;85.00;;;;;;5014388;28;20045;-29
2023/09/26 04:07:33;;;;;;;2.17;1.70;;;19.00;68.60;;;;;;5017561;28;20136;-29
2023/09/26 04:10:00;;;;;;;2.55;1.90;;;;;;;;;;5018265;28;20465;-30
2023/09/26 04:12:27;;;;;;;4.63;2.13;;;18.70;85.60;;;;;;5016597;28;20145;-30
2023/09/26 04:14:54;;;;;;;2.15;1.70;;;19.70;85.80;;;;;;5036991;28;20533;-30
2023/09/26 04:17:22;;;;;;;2.65;2.13;;;20.20;86.10;;;;;;5038118;28;20133;-30
2023/09/26 04:19:49;;;;;;;2.20;2.00;;;18.60;82.60;;;;;;5026752;28;20133;-30
2023/09/26 04:22:16;;;;;;;2.00;1.75;;;19.50;71.40;;;;;;5018225;28;20056;-30
2023/09/26 04:24:42;;;;;;;2.58;2.10;;;18.80;85.10;;;;;;5018097;28;20077;-29
2023/09/26 04:27:09;;;;;;;2.28;1.90;;;18.50;85.10;;;;;;5018219;28;20136;-29
2023/09/26 04:29:36;;;;;;;2.70;1.98;;;;;;;;;;5018310;28;20152;-29
2023/09/26 04:32:03;;;;;;;3.05;2.20;;;19.00;85.60;;;;;;5018382;28;20054;-30
2023/09/26 04:34:32;;;;;;;2.55;1.95;;;19.00;68.60;;;;;;5018071;28;20124;-29
2023/09/26 04:36:59;;;;;;;3.10;2.00;;;19.60;85.60;;;;;;5017323;28;20719;-30
2023/09/26 04:39:26;;;;;;;2.55;1.70;;;19.30;74.70;;;;;;5018322;28;20129;-29
2023/09/26 04:41:53;;;;;;;2.58;2.00;;;18.90;85.60;;;;;;5017799;28;20414;-29
2023/09/26 04:44:19;;;;;;;2.55;2.00;;;18.60;85.20;;;;;;5017858;28;20135;-29
2023/09/26 04:46:47;;;;;;;2.22;1.88;;;;;;;;;;5017660;28;20124;-29
2023/09/26 04:49:13;;;;;;;5.35;2.03;;;20.00;83.50;;;;;;5018094;28;20133;-29
2023/09/26 04:51:42;;;;;;;2.10;1.90;;;18.70;85.30;;;;;;5018220;28;20129;-27
2023/09/26 04:54:09;;;;;;;2.55;2.00;;;18.90;83.60;;;;;;5018148;28;20057;-28
2023/09/26 04:56:36;;;;;;;2.47;1.90;;;19.70;80.20;;;;;;5017349;28;20109;-27
2023/09/26 04:59:04;;;;;;;2.40;1.90;;;;;;;;;;5017814;28;20571;-27
2023/09/26 05:01:31;;;;;;;3.10;2.17;;;;;;;;;;5017847;28;20054;-29
2023/09/26 05:03:57;;;;;;;2.53;2.00;;;18.80;85.10;;;;;;5017621;28;20096;-27
2023/09/26 05:06:24;;;;;;;2.40;1.90;;;19.90;85.70;;;;;;5018012;28;20157;-27
2023/09/26 05:08:52;;;;;;;4.60;2.10;;;19.50;71.70;;;;;;5017983;28;20129;-28
2023/09/26 05:11:19;;;;;;;2.10;1.90;;;;;;;;;;5017996;28;20151;-28
2023/09/26 05:13:46;;;;;;;2.67;2.05;;;20.00;86.10;;;;;;5017658;28;20128;-28
2023/09/26 05:16:14;;;;;;;5.32;1.85;;;19.20;85.70;;;;;;5015551;28;20061;-27
2023/09/26 05:18:41;;;;;;;2.20;2.00;;;19.30;86.10;;;;;;5014738;28;20124;-27
2023/09/26 05:21:08;;;;;;;2.70;2.10;;;19.20;86.00;;;;;;5014973;28;20107;-28
2023/09/26 05:23:35;;;;;;;1.90;1.70;;;;;;;;;;5014701;28;20145;-27
2023/09/26 05:26:07;;;;;;;2.13;1.77;;;19.00;68.60;;;;;;5014347;28;20129;-29
2023/09/26 05:28:34;;;;;;;2.20;1.90;;;;;;;;;;5014436;28;20129;-29
2023/09/26 05:31:01;;;;;;;2.35;1.77;;;18.10;85.20;;;;;;5014279;28;20550;-30
2023/09/26 05:33:28;;;;;;;2.17;1.70;;;;;;;;;;5014477;28;20133;-29
2023/09/26 05:35:55;;;;;;;3.28;1.90;;;19.00;86.00;;;;;;5013987;28;20134;-30
2023/09/26 05:38:22;;;;;;;2.42;1.92;;;;;;;;;;5014389;28;20133;-29
2023/09/26 05:40:49;;;;;;;2.83;2.10;;;19.20;86.00;;;;;;5014082;28;20487;-30
2023/09/26 05:43:17;;;;;;;2.00;1.80;;;20.00;86.40;;;;;;5014187;28;20137;-30
2023/09/26 05:45:44;;;;;;;2.60;2.10;;;18.70;85.80;;;;;;5013635;28;20137;-30
2023/09/26 05:48:10;;;;;;;2.47;1.83;;;17.80;76.70;;;;;;5013890;28;20419;-29
2023/09/26 05:50:37;;;;;;;3.88;1.90;;;;;;;;;;5013655;28;20222;-29
2023/09/26 05:53:04;;;;;;;2.17;1.83;;;;;;;;;;4994578;28;20093;-29
2023/09/26 05:55:32;;;;;;;2.17;1.70;;;19.20;85.70;;;;;;4994528;28;20129;-30
2023/09/26 05:57:59;;;;;;;2.60;2.00;;;19.90;82.70;;;;;;4996570;28;20170;-30
2023/09/26 06:00:27;;;;;;;2.60;1.85;;;19.00;86.00;;;;;;5014011;28;20112;-30
2023/09/26 06:02:54;;;;;;;3.08;1.95;;;18.20;85.20;;;;;;5013830;28;20133;-27
2023/09/26 06:05:21;;;;;;;2.60;2.10;;;;;;;;;;5013671;28;20555;-29
2023/09/26 06:07:49;;;;;;;3.03;2.10;;;18.00;85.20;;;;;;5013769;28;20132;-27
2023/09/26 06:10:16;;;;;;;3.13;2.05;;;18.80;85.40;;;;;;5013732;28;20108;-28
2023/09/26 06:12:44;;;;;;;2.53;2.03;;;;;;;;;;5013734;28;20060;-29
2023/09/26 06:15:11;;;;;;;2.65;1.90;;;;;;;;;;5033366;28;20546;-29
2023/09/26 06:17:40;;;;;;;2.90;2.10;;;18.80;85.40;;;;;;5033390;28;20111;-30
2023/09/26 06:20:09;;;;;;;2.45;1.80;;;18.60;75.10;;;;;;5033329;28;20041;-30
2023/09/26 06:22:36;;;;;;;2.65;2.00;;;19.30;69.60;;;;;;5033432;28;20067;-27
2023/09/26 06:25:04;;;;;;;2.70;2.00;;;;;;;;;;5033014;28;20132;-28
2023/09/26 06:27:34;;;;;;;2.90;2.30;;;18.90;85.90;;;;;;5031004;28;20132;-27
2023/09/26 06:30:00;;;;;;;2.92;1.95;;;19.10;85.90;;;;;;4993924;28;20061;-27
2023/09/26 06:32:27;;;;;;;3.50;1.90;;;;;;;;;;4995072;28;20129;-28
2023/09/26 06:34:59;;;;;;;2.30;1.92;;;18.50;80.90;;;;;;4994121;28;20078;-28
2023/09/26 06:37:26;;;;;;;2.40;1.95;;;19.60;71.30;;;;;;5004420;28;20133;-27
2023/09/26 06:39:53;;;;;;;2.65;2.17;;;18.30;85.10;;;;;;5004135;28;20081;-27
2023/09/26 06:42:20;;;;;;;2.85;2.00;;;;;;;;;;5013487;28;20450;-30
2023/09/26 06:44:49;;;;;;;2.83;2.08;;;18.80;85.20;;;;;;5013111;28;20415;-30
2023/09/26 06:47:17;;;;;;;2.72;2.00;;;;;;;;;;5012908;28;20594;-29
2023/09/26 06:49:46;;;;;;;2.50;2.10;;;18.60;71.00;;;;;;5013274;28;20073;-30
2023/09/26 06:52:15;;;;;;;2.53;2.08;;;19.60;85.90;;;;;;5017706;28;20052;-30
2023/09/26 06:54:42;;;;;;;2.88;1.92;;;18.60;85.20;;;;;;5013140;28;20133;-30
2023/09/26 06:57:09;;;;;;;2.70;2.20;;;18.80;85.00;;;;;;5013097;28;20136;-30
2023/09/26 06:59:36;;;;;;;3.50;2.05;;;;;;;;;;5012883;28;20466;-29
2023/09/26 07:02:03;;;;;;;2.55;1.90;;;18.90;85.00;;;;;;5012997;28;20128;-30
2023/09/26 07:04:30;;;;;;;3.13;1.80;;;20.30;86.10;;;;;;5012670;28;20134;-30
2023/09/26 07:06:57;;;;;;;3.20;2.20;;;19.50;76.20;;;;;;5012723;28;20129;-29
2023/09/26 07:09:26;;;;;;;2.33;1.83;;;18.90;84.80;;;;;;5012984;28;20129;-30
2023/09/26 07:11:53;;;;;;;2.83;2.00;;;;;;;;;;5012977;28;20080;-29
2023/09/26 07:14:20;;;;;;;2.70;2.03;;;20.90;85.30;;;;;;5011912;28;20438;-29
2023/09/26 07:16:47;;;;;;;2.33;1.70;;;20.80;75.70;;;;;;5012068;28;20054;-31
2023/09/26 07:19:14;;;;;;;2.63;1.70;;;19.30;83.70;;;;;;5011236;28;20046;-30
2023/09/26 07:21:41;;;;;;;2.67;1.80;;;;;;;;;;5011944;28;20046;-28
2023/09/26 07:24:08;;;;;;;3.25;1.98;;;20.00;84.30;;;;;;5009534;28;20100;-29
2023/09/26 07:26:36;;;;;;;4.22;1.83;;;19.80;84.00;;;;;;5012023;28;20129;-29
2023/09/26 07:29:03;;;;;;;2.72;1.70;;;20.10;83.80;;;;;;5012508;28;20128;-29
2023/09/26 07:31:31;;;;;;;2.40;1.85;;;20.10;75.90;;;;;;5012581;28;20046;-27
2023/09/26 07:33:58;;;;;;;2.00;1.60;;;;;;;;;;5011989;28;20050;-28
2023/09/26 07:36:24;;;;;;;2.53;1.70;;;21.00;83.80;;;;;;5011952;28;20073;-27
2023/09/26 07:38:51;;;;;;;2.00;1.70;;;;;;;;;;5012028;28;20050;-28
2023/09/26 07:41:18;;;;;;;3.08;1.90;;;20.70;83.20;;;;;;5003532;28;20499;-28
2023/09/26 07:43:46;;;;;;;2.15;1.60;;;20.60;82.90;;;;;;5002934;28;20125;-27
2023/09/26 07:46:14;;;;;;;4.15;1.58;;;19.80;82.40;;;;;;5008014;28;20456;-27
2023/09/26 07:48:42;;;;;;;1.60;1.48;;;;;;;;;;5011565;28;20053;-28
2023/09/26 07:51:10;;;;;;;1.95;1.50;;;20.70;83.30;;;;;;5011990;28;20626;-27
2023/09/26 07:53:37;;;;;;;3.72;1.70;;;21.00;82.90;;;;;;5011888;28;20474;-28
2023/09/26 07:56:04;;;;;;;2.05;1.60;;;20.80;82.60;;;;;;5014528;28;20129;-28
2023/09/26 07:58:31;;;;;;;2.42;1.70;;;21.30;82.00;;;;;;5020225;28;20477;-28
2023/09/26 08:01:00;;;;;;;4.50;1.80;;;21.10;66.30;;;;;;5013459;28;20054;-28
2023/09/26 08:03:27;;;;;;;3.38;1.90;;;22.20;82.30;;;;;;5012329;28;20061;-28
2023/09/26 08:05:59;;;;;;;2.28;1.85;;;21.10;81.90;;;;;;5012079;28;20081;-27
2023/09/26 08:08:26;;;;;;;2.67;1.60;;;21.20;81.50;;;;;;5011946;28;20056;-27
2023/09/26 08:10:53;;;;;;;4.72;1.85;;;;;;;;;;5011818;28;20129;-28
2023/09/26 08:13:20;;;;;;;2.00;1.58;;;;;;;;;;5002358;28;20056;-29
2023/09/26 08:15:47;;;;;;;1.65;1.40;;;;;;;;;;5001685;28;20141;-29
2023/09/26 08:18:15;;;;;;;3.25;1.88;;;21.50;65.80;;;;;;5002579;28;20165;-29
2023/09/26 08:20:42;;;;;;;3.40;1.83;;;21.60;81.20;;;;;;4997402;28;20137;-29
2023/09/26 08:23:08;;;;;;;2.13;1.63;;;21.50;81.10;;;;;;5000424;28;20050;-28
2023/09/26 08:25:36;;;;;;;3.03;1.70;;;22.60;75.30;;;;;;5011855;28;20104;-28
2023/09/26 08:28:04;;;;;;;3.97;2.03;;;21.70;75.00;;;;;;5011432;28;20133;-28
2023/09/26 08:30:33;;;;;;;3.50;1.90;;;21.80;80.40;;;;;;5011258;28;20077;-29
2023/09/26 08:32:59;;;;;;;2.90;1.90;;;21.70;80.00;;;;;;5011492;28;20132;-29
2023/09/26 08:35:27;;;;;;;2.88;1.60;;;21.80;80.40;;;;;;5011514;28;20074;-29
2023/09/26 08:37:54;;;;;;;5.57;1.90;;;21.70;88.50;;;;;;5008095;28;20133;-28
2023/09/26 08:40:21;;;;;;;3.58;1.90;;;;;;;;;;5011703;28;20125;-28
2023/09/26 08:42:49;;;;;;;3.60;1.67;;;22.10;89.50;;;;;;5011709;28;20042;-28
2023/09/26 08:45:16;;;;;;;3.63;1.90;;;22.20;69.70;;;;;;5010753;28;20049;-26
2023/09/26 08:47:43;;;;;;;1.90;1.58;;;;;;;;;;5010379;28;20054;-26
2023/09/26 08:50:10;;;;;;;2.17;1.52;;;22.10;87.90;;;;;;5008535;28;20049;-26
2023/09/26 08:52:38;;;;;;;2.15;1.70;;;22.10;64.60;;;;;;5014771;28;20125;-27
2023/09/26 08:55:06;;;;;;;3.40;1.77;;;;;;;;;;5014739;28;20187;-28
2023/09/26 08:57:33;;;;;;;3.10;1.70;;;22.00;87.50;;;;;;5014603;28;20124;-26
2023/09/26 09:00:00;;;;;;;4.57;1.70;;;;;;;;;;5014827;28;20092;-28
2023/09/26 09:02:27;;;;;;;2.17;1.60;;;22.50;88.90;;;;;;5013977;28;20510;-28
2023/09/26 09:04:54;;;;;;;1.95;1.58;;;20.80;70.70;;;;;;5014316;28;20053;-28
2023/09/26 09:07:21;;;;;;;2.10;1.50;;;23.40;87.90;;;;;;5014456;28;20567;-26
2023/09/26 09:12:41;;;;;;;2.70;1.80;;;21.90;64.60;;;;;;5078693;27;20364;-29
2023/09/26 09:15:22;;;;;;;1.88;1.65;;;21.90;64.60;;;;;;5080030;28;20131;-30
2023/09/26 09:17:50;;;;;;;2.40;1.65;;;;;;;;;;5079982;28;20044;-29
2023/09/26 09:20:29;;;;;;;2.15;1.55;;;21.90;64.70;;;;;;5076639;28;20533;-28
2023/09/26 09:23:02;;;;;;;2.55;2.00;;;21.90;64.70;;;;;;5068950;28;20085;-29
2023/09/26 09:25:33;;;;;;;3.63;1.60;;;;;;;;;;5069148;28;20059;-29
2023/09/26 09:28:01;;;;;;;2.20;1.58;;;;;;;;;;5068672;28;20544;-29
2023/09/26 09:30:29;;;;;;;2.58;1.67;;;;;;;;;;5071853;28;20557;-30
2023/09/26 09:32:57;;;;;;;2.72;1.73;;;;;;;;;;5089224;28;20058;-29
2023/09/26 09:35:23;;;;;;;2.42;1.83;;;21.70;86.60;;;;;;5079843;28;20852;-28
2023/09/26 09:37:50;;;;;;;2.13;1.63;;;21.70;86.30;;;;;;5077954;28;20119;-29
2023/09/26 09:40:17;;;;;;;2.20;1.70;;;21.50;73.50;;;;;;5078402;28;20051;-29
2023/09/26 09:42:44;;;;;;;2.13;1.70;;;;;;;;;;5077847;28;20055;-29
2023/09/26 09:45:12;;;;;;;3.55;1.60;;;21.70;64.90;;;;;;5079736;28;20127;-29
2023/09/26 09:47:42;;;;;;;3.78;1.90;;;;;;;;;;5088384;28;20148;-29
2023/09/26 09:50:09;;;;;;;2.17;1.52;;;;;;;;;;5089046;28;20098;-28
2023/09/26 09:52:36;;;;;;;1.80;1.50;;;;;;;;;;5088687;28;20123;-28
2023/09/26 09:55:05;;;;;;;3.17;1.67;;;21.50;65.00;;;;;;5088488;28;20501;-30
2023/09/26 09:57:33;;;;;;;2.20;1.60;;;;;;;;;;5088155;28;20048;-29
2023/09/26 10:00:00;;;;;;;2.47;1.70;;;21.30;85.90;;;;;;5087666;28;20496;-28
2023/09/26 10:02:28;;;;;;;1.85;1.50;;;21.50;65.10;;;;;;5071179;28;20131;-29
2023/09/26 10:04:55;;;;;;;2.10;1.50;;;21.30;86.60;;;;;;5068147;28;20128;-29
2023/09/26 10:07:23;;;;;;;2.50;1.75;;;21.50;65.20;;;;;;5067901;28;20243;-29
2023/09/26 10:09:50;;;;;;;2.35;1.70;;;;;;;;;;5067837;28;20135;-34
2023/09/26 10:12:17;;;;;;;2.65;1.70;;;21.20;73.10;;;;;;5067853;28;20136;-37
2023/09/26 10:14:44;;;;;;;2.42;1.60;;;;;;;;;;5085186;28;20159;-33
2023/09/26 10:17:10;;;;;;;1.90;1.50;;;21.70;86.70;;;;;;5084405;28;20090;-35
2023/09/26 10:19:39;;;;;;;1.52;1.38;;;21.30;65.20;;;;;;5067853;28;20405;-33
2023/09/26 10:22:15;;;;;;;1.98;1.60;;;21.30;65.20;;;;;;5064975;28;20052;-35
2023/09/26 10:24:46;;;;;;;1.75;1.40;;;21.30;65.30;;;;;;5054613;28;20143;-31
2023/09/26 10:27:13;;;;;;;3.40;1.95;;;;;;;;;;5059508;28;20148;-32
2023/09/26 10:29:41;;;;;;;2.35;1.58;;;;;;;;;;5057296;28;20142;-33
2023/09/26 10:32:09;;;;;;;1.80;1.50;;;21.20;86.10;;;;;;5054603;28;20080;-33
2023/09/26 10:34:36;;;;;;;2.08;1.65;;;;;;;;;;5067884;28;20044;-33
2023/09/26 10:37:05;;;;;;;1.95;1.50;;;;;;;;;;5060173;28;20572;-32
2023/09/26 10:39:35;;;;;;;3.40;1.67;;;21.20;65.40;;;;;;5060496;28;20131;-35
2023/09/26 10:42:09;;;;;;;2.38;1.38;;;;;;;;;;5066198;28;20546;-34
2023/09/26 10:44:36;;;;;;;1.92;1.58;;;;;;;;;;5060031;28;20047;-33
2023/09/26 10:47:05;;;;;;;1.92;1.40;;;20.80;75.60;;;;;;5058779;28;20079;-32
2023/09/26 10:49:32;;;;;;;1.90;1.50;;;;;;;;;;5062119;28;20052;-34
2023/09/26 10:52:00;;;;;;;2.25;1.50;;;21.20;65.50;;;;;;5063010;28;20048;-36
2023/09/26 10:54:32;;;;;;;2.55;1.52;;;;;;;;;;5064498;28;20452;-30
2023/09/26 10:57:00;;;;;;;2.00;1.60;;;;;;;;;;5053548;28;20414;-31
2023/09/26 10:59:27;;;;;;;2.03;1.40;;;;;;;;;;5052501;28;20143;-36
2023/09/26 11:01:55;;;;;;;2.08;1.42;;;21.10;65.50;;;;;;5052832;28;20414;-34
2023/09/26 11:04:24;;;;;;;2.30;1.58;;;20.70;81.70;;;;;;5062585;28;20383;-32
2023/09/26 11:06:51;;;;;;;2.40;1.50;;;;;;;;;;5063028;28;20119;-32
2023/09/26 11:09:18;;;;;;;2.47;1.60;;;;;;;;;;5064244;28;20091;-32
2023/09/26 11:11:46;;;;;;;3.08;2.47;;;21.10;65.50;;;;;;5062556;28;20124;-34
2023/09/26 11:14:13;;;;;;;7.90;4.38;;;;;;;;;;5061177;28;20127;-33
2023/09/26 11:16:41;;;;;;;8.20;4.45;;;21.10;65.60;;;;;;5059538;28;20565;-31
2023/09/26 11:19:09;;;;;;;9.45;5.00;;;19.90;71.70;;;;;;5060558;28;20473;-29
2023/09/26 11:21:36;;;;;;;9.32;4.65;;;;;;;;;;5062428;28;20072;-28
2023/09/26 11:24:18;;;;;;;7.97;4.82;;;21.10;65.50;;;;;;5064709;28;20049;-28
2023/09/26 11:26:48;;;;;;;10.65;5.15;;;;;;;;;;5052852;28;20128;-28
2023/09/26 11:29:15;;;;;;;10.25;5.40;;;20.80;83.10;;;;;;5055142;28;20045;-28
2023/09/26 11:31:42;;;;;;;8.52;4.97;;;22.20;80.80;;;;;;5060317;28;20132;-29
2023/09/26 11:34:09;;;;;;;8.52;4.70;;;20.70;86.20;;;;;;5054574;28;20045;-27
2023/09/26 11:36:36;;;;;;;7.82;5.10;;;21.40;87.00;;;;;;5059036;28;20127;-27
2023/09/26 11:39:05;;;;;;;7.13;4.50;;;20.90;83.60;;;;;;5072702;28;20135;-28
2023/09/26 11:41:32;;;;;;;6.78;4.50;;;20.80;86.30;;;;;;5058833;28;20045;-29
2023/09/26 11:44:09;;;;;;;9.02;4.43;;;21.00;65.60;;;;;;5053302;28;20479;-29
2023/09/26 11:46:40;;;;;;;8.77;4.90;;;;;;;;;;5052897;28;20049;-35
2023/09/26 11:49:07;;;;;;;8.27;4.40;;;;;;;;;;5052781;28;20045;-33
2023/09/26 11:51:34;;;;;;;6.78;4.30;;;20.20;82.30;;;;;;5052153;28;20127;-28
2023/09/26 11:54:01;;;;;;;5.68;3.88;;;;;;;;;;5052856;28;20076;-30
2023/09/26 11:56:28;;;;;;;6.82;3.85;;;21.10;86.90;;;;;;5053135;28;20228;-28
2023/09/26 11:58:54;;;;;;;6.82;3.88;;;21.70;87.10;;;;;;5053838;28;20540;-28
2023/09/26 12:01:22;;;;;;;7.05;3.85;;;20.90;65.50;;;;;;5073080;28;20131;-29
2023/09/26 12:03:50;;;;;;;6.70;3.67;;;;;;;;;;5072573;28;20577;-27
2023/09/26 12:06:16;;;;;;;5.30;3.42;;;21.10;87.40;;;;;;5072651;28;20599;-28
2023/09/26 12:08:44;;;;;;;7.60;3.80;;;20.40;86.50;;;;;;5072359;28;20132;-28
2023/09/26 12:11:11;;;;;;;8.63;3.53;;;;;;;;;;5072318;28;20070;-29
2023/09/26 12:13:38;;;;;;;7.82;3.58;;;;;;;;;;5072506;28;20580;-29
2023/09/26 12:16:05;;;;;;;5.75;3.50;;;20.70;86.30;;;;;;5062212;28;20472;-28
2023/09/26 12:18:34;;;;;;;6.38;3.30;;;;;;;;;;5055550;28;20055;-34
2023/09/26 12:21:01;;;;;;;4.85;3.25;;;19.80;86.10;;;;;;5052130;28;20565;-36
2023/09/26 12:23:29;;;;;;;5.35;3.20;;;;;;;;;;5052294;28;20520;-31
2023/09/26 12:25:56;;;;;;;8.23;3.22;;;20.40;86.50;;;;;;5052455;28;20051;-34
2023/09/26 12:28:22;;;;;;;5.43;3.10;;;20.80;86.10;;;;;;5052043;28;20414;-37
2023/09/26 12:30:50;;;;;;;3.85;2.80;;;21.20;85.40;;;;;;5053300;28;20072;-35
2023/09/26 12:33:16;;;;;;;5.57;3.00;;;20.00;74.30;;;;;;5052219;28;20048;-32
2023/09/26 12:35:44;;;;;;;4.35;2.90;;;20.90;65.60;;;;;;5056842;28;20080;-33
2023/09/26 12:38:11;;;;;;;4.93;3.08;;;19.90;85.70;;;;;;5071092;28;20557;-34
2023/09/26 12:40:38;;;;;;;5.38;2.83;;;;;;;;;;5071775;28;20135;-35
2023/09/26 12:43:05;;;;;;;4.10;2.60;;;19.70;79.20;;;;;;5071943;28;20044;-34
2023/09/26 12:45:32;;;;;;;4.75;2.90;;;20.60;86.50;;;;;;5070801;28;20132;-35
2023/09/26 12:47:59;;;;;;;4.40;2.60;;;;;;;;;;5060807;28;20131;-31
2023/09/26 12:50:26;;;;;;;6.53;3.10;;;21.60;86.50;;;;;;5052032;28;20494;-34
2023/09/26 12:52:56;;;;;;;5.72;2.90;;;20.90;65.40;;;;;;5060486;28;20044;-31
2023/09/26 12:55:23;;;;;;;4.13;2.65;;;21.20;68.80;;;;;;5060020;28;20091;-32
2023/09/26 12:57:50;;;;;;;5.47;2.72;;;;;;;;;;5059873;28;20068;-33
2023/09/26 13:00:18;;;;;;;5.22;2.70;;;;;;;;;;5067338;28;20135;-32
2023/09/26 13:02:46;;;;;;;5.65;3.05;;;;;;;;;;5071756;28;20048;-30
2023/09/26 13:05:13;;;;;;;7.65;2.80;;;19.70;85.70;;;;;;5071846;28;20087;-37
2023/09/26 13:07:40;;;;;;;3.70;2.50;;;20.70;69.00;;;;;;5071523;28;20127;-34
2023/09/26 13:10:10;;;;;;;3.95;2.22;;;20.90;65.50;;;;;;5061397;28;20139;-35
2023/09/26 13:12:38;;;;;;;4.68;2.42;;;20.40;86.70;;;;;;5070640;28;20132;-34
2023/09/26 13:15:05;;;;;;;3.33;2.35;;;20.80;65.40;;;;;;5051776;28;20064;-34
2023/09/26 13:17:32;;;;;;;4.30;2.70;;;;;;;;;;5051333;28;20096;-30
2023/09/26 13:19:59;;;;;;;4.05;2.00;;;21.10;86.50;;;;;;5051778;28;20096;-35
2023/09/26 13:22:26;;;;;;;3.55;2.40;;;20.60;83.70;;;;;;5052693;28;20044;-37